sensor_id;sensor_type;location;lat;lon;timestamp;temperature;humidity
13808;DHT22;40769;51.512;5.494;2022-08-19T00:01:20;21.80;99.90
13808;DHT22;40769;51.512;5.494;2022-08-19T00:03:45;21.70;99.90
13808;DHT22;40769;51.512;5.494;2022-08-19T00:06:11;21.70;99.90
13808;DHT22;40769;51.512;5.494;2022-08-19T00:08:36;21.80;99.90
13808;DHT22;40769;51.512;5.494;2022-08-19T00:11:02;21.70;99.90
13808;DHT22;40769;51.512;5.494;2022-08-19T00:13:28;21.70;99.90
13808;DHT22;40769;51.512;5.494;2022-08-19T00:15:55;21.60;99.90
13808;DHT22;40769;51.512;5.494;2022-08-19T00:18:20;21.60;99.90
13808;DHT22;40769;51.512;5.494;2022-08-19T00:20:46;21.60;99.90
13808;DHT22;40769;51.512;5.494;2022-08-19T00:23:12;21.50;99.90
13808;DHT22;40769;51.512;5.494;2022-08-19T00:25:37;21.50;99.90
13808;DHT22;40769;51.512;5.494;2022-08-19T00:28:04;21.40;99.90
13808;DHT22;40769;51.512;5.494;2022-08-19T00:30:30;21.40;99.90
13808;DHT22;40769;51.512;5.494;2022-08-19T00:32:56;21.50;99.90
13808;DHT22;40769;51.512;5.494;2022-08-19T00:35:22;21.30;99.90
13808;DHT22;40769;51.512;5.494;2022-08-19T00:37:48;21.40;99.90
13808;DHT22;40769;51.512;5.494;2022-08-19T00:40:15;21.40;99.90
13808;DHT22;40769;51.512;5.494;2022-08-19T00:42:44;21.40;99.90
13808;DHT22;40769;51.512;5.494;2022-08-19T00:45:22;21.30;99.90
13808;DHT22;40769;51.512;5.494;2022-08-19T00:47:48;21.30;99.90
13808;DHT22;40769;51.512;5.494;2022-08-19T00:50:17;21.30;99.90
13808;DHT22;40769;51.512;5.494;2022-08-19T00:52:46;21.30;99.90
13808;DHT22;40769;51.512;5.494;2022-08-19T00:55:18;21.20;99.90
13808;DHT22;40769;51.512;5.494;2022-08-19T00:57:47;21.20;99.90
13808;DHT22;40769;51.512;5.494;2022-08-19T01:00:16;21.20;99.90
13808;DHT22;40769;51.512;5.494;2022-08-19T01:02:42;21.10;99.90
13808;DHT22;40769;51.512;5.494;2022-08-19T01:05:11;21.10;99.90
13808;DHT22;40769;51.512;5.494;2022-08-19T01:07:39;21.10;99.90
13808;DHT22;40769;51.512;5.494;2022-08-19T01:10:09;21.00;99.90
13808;DHT22;40769;51.512;5.494;2022-08-19T01:12:36;21.00;99.90
13808;DHT22;40769;51.512;5.494;2022-08-19T01:15:04;20.90;99.90
13808;DHT22;40769;51.512;5.494;2022-08-19T01:17:31;20.90;99.90
13808;DHT22;40769;51.512;5.494;2022-08-19T01:19:56;20.90;99.90
13808;DHT22;40769;51.512;5.494;2022-08-19T01:22:36;20.80;99.90
13808;DHT22;40769;51.512;5.494;2022-08-19T01:25:05;20.80;99.90
13808;DHT22;40769;51.512;5.494;2022-08-19T01:27:40;20.80;99.90
13808;DHT22;40769;51.512;5.494;2022-08-19T01:30:07;20.70;99.90
13808;DHT22;40769;51.512;5.494;2022-08-19T01:32:33;20.70;99.90
13808;DHT22;40769;51.512;5.494;2022-08-19T01:34:59;20.70;99.90
13808;DHT22;40769;51.512;5.494;2022-08-19T01:37:27;20.70;99.90
13808;DHT22;40769;51.512;5.494;2022-08-19T01:39:52;20.70;99.90
13808;DHT22;40769;51.512;5.494;2022-08-19T01:42:18;20.70;99.90
13808;DHT22;40769;51.512;5.494;2022-08-19T01:44:45;20.60;99.90
13808;DHT22;40769;51.512;5.494;2022-08-19T01:47:11;20.60;99.90
13808;DHT22;40769;51.512;5.494;2022-08-19T01:49:37;20.60;99.90
13808;DHT22;40769;51.512;5.494;2022-08-19T01:52:04;20.60;99.90
13808;DHT22;40769;51.512;5.494;2022-08-19T01:54:31;20.60;99.90
13808;DHT22;40769;51.512;5.494;2022-08-19T01:57:15;20.50;99.90
13808;DHT22;40769;51.512;5.494;2022-08-19T01:59:43;20.60;99.90
13808;DHT22;40769;51.512;5.494;2022-08-19T02:02:09;20.60;99.90
13808;DHT22;40769;51.512;5.494;2022-08-19T02:04:36;20.60;99.90
13808;DHT22;40769;51.512;5.494;2022-08-19T02:07:03;20.60;99.90
13808;DHT22;40769;51.512;5.494;2022-08-19T02:09:30;20.60;99.90
13808;DHT22;40769;51.512;5.494;2022-08-19T02:11:56;20.60;99.90
13808;DHT22;40769;51.512;5.494;2022-08-19T02:14:22;20.60;99.90
13808;DHT22;40769;51.512;5.494;2022-08-19T02:16:47;20.60;99.90
13808;DHT22;40769;51.512;5.494;2022-08-19T02:19:13;20.70;99.90
13808;DHT22;40769;51.512;5.494;2022-08-19T02:21:38;20.80;99.90
13808;DHT22;40769;51.512;5.494;2022-08-19T02:24:04;20.60;99.90
13808;DHT22;40769;51.512;5.494;2022-08-19T02:26:32;20.70;99.90
13808;DHT22;40769;51.512;5.494;2022-08-19T02:28:58;20.70;99.90
13808;DHT22;40769;51.512;5.494;2022-08-19T02:31:25;20.70;99.90
13808;DHT22;40769;51.512;5.494;2022-08-19T02:33:50;20.70;99.90
13808;DHT22;40769;51.512;5.494;2022-08-19T02:36:17;20.70;99.90
13808;DHT22;40769;51.512;5.494;2022-08-19T02:38:44;20.70;99.90
13808;DHT22;40769;51.512;5.494;2022-08-19T02:41:17;20.60;99.90
13808;DHT22;40769;51.512;5.494;2022-08-19T02:43:43;20.70;99.90
13808;DHT22;40769;51.512;5.494;2022-08-19T02:46:14;20.60;99.90
13808;DHT22;40769;51.512;5.494;2022-08-19T02:48:40;20.60;99.90
13808;DHT22;40769;51.512;5.494;2022-08-19T02:51:05;20.70;99.90
13808;DHT22;40769;51.512;5.494;2022-08-19T02:53:31;20.60;99.90
13808;DHT22;40769;51.512;5.494;2022-08-19T02:55:57;20.60;99.90
13808;DHT22;40769;51.512;5.494;2022-08-19T02:58:23;20.60;99.90
13808;DHT22;40769;51.512;5.494;2022-08-19T03:00:52;20.50;99.90
13808;DHT22;40769;51.512;5.494;2022-08-19T03:03:18;20.50;99.90
13808;DHT22;40769;51.512;5.494;2022-08-19T03:05:44;20.50;99.90
13808;DHT22;40769;51.512;5.494;2022-08-19T03:08:11;20.50;99.90
13808;DHT22;40769;51.512;5.494;2022-08-19T03:10:42;20.40;99.90
13808;DHT22;40769;51.512;5.494;2022-08-19T03:13:13;20.40;99.90
13808;DHT22;40769;51.512;5.494;2022-08-19T03:15:41;20.40;99.90
13808;DHT22;40769;51.512;5.494;2022-08-19T03:18:06;20.30;99.90
13808;DHT22;40769;51.512;5.494;2022-08-19T03:20:32;20.30;99.90
13808;DHT22;40769;51.512;5.494;2022-08-19T03:22:58;20.30;99.90
13808;DHT22;40769;51.512;5.494;2022-08-19T03:25:23;20.30;99.90
13808;DHT22;40769;51.512;5.494;2022-08-19T03:27:49;20.30;99.90
13808;DHT22;40769;51.512;5.494;2022-08-19T03:30:15;20.20;99.90
13808;DHT22;40769;51.512;5.494;2022-08-19T03:32:40;20.20;99.90
13808;DHT22;40769;51.512;5.494;2022-08-19T03:35:06;20.20;99.90
13808;DHT22;40769;51.512;5.494;2022-08-19T03:37:32;20.10;99.90
13808;DHT22;40769;51.512;5.494;2022-08-19T03:39:58;20.10;99.90
13808;DHT22;40769;51.512;5.494;2022-08-19T03:42:23;20.10;99.90
13808;DHT22;40769;51.512;5.494;2022-08-19T03:44:52;20.10;99.90
13808;DHT22;40769;51.512;5.494;2022-08-19T03:47:17;20.10;99.90
13808;DHT22;40769;51.512;5.494;2022-08-19T03:49:44;20.10;99.90
13808;DHT22;40769;51.512;5.494;2022-08-19T03:52:09;20.00;99.90
13808;DHT22;40769;51.512;5.494;2022-08-19T03:54:36;20.00;99.90
13808;DHT22;40769;51.512;5.494;2022-08-19T03:57:03;20.00;99.90
13808;DHT22;40769;51.512;5.494;2022-08-19T03:59:33;20.10;99.90
13808;DHT22;40769;51.512;5.494;2022-08-19T04:02:05;20.00;99.90
13808;DHT22;40769;51.512;5.494;2022-08-19T04:04:33;20.10;99.90
13808;DHT22;40769;51.512;5.494;2022-08-19T04:06:59;20.10;99.90
13808;DHT22;40769;51.512;5.494;2022-08-19T04:09:25;20.10;99.90
13808;DHT22;40769;51.512;5.494;2022-08-19T04:11:53;20.20;99.90
13808;DHT22;40769;51.512;5.494;2022-08-19T04:14:22;20.10;99.90
13808;DHT22;40769;51.512;5.494;2022-08-19T04:16:48;20.20;99.90
13808;DHT22;40769;51.512;5.494;2022-08-19T04:19:16;20.20;99.90
13808;DHT22;40769;51.512;5.494;2022-08-19T04:21:44;20.20;99.90
13808;DHT22;40769;51.512;5.494;2022-08-19T04:24:11;20.30;99.90
13808;DHT22;40769;51.512;5.494;2022-08-19T04:26:37;20.20;99.90
13808;DHT22;40769;51.512;5.494;2022-08-19T04:29:13;20.20;99.90
13808;DHT22;40769;51.512;5.494;2022-08-19T04:31:39;20.20;99.90
13808;DHT22;40769;51.512;5.494;2022-08-19T04:34:08;20.20;99.90
13808;DHT22;40769;51.512;5.494;2022-08-19T04:36:37;20.20;99.90
13808;DHT22;40769;51.512;5.494;2022-08-19T04:39:08;20.20;99.90
13808;DHT22;40769;51.512;5.494;2022-08-19T04:41:34;20.20;99.90
13808;DHT22;40769;51.512;5.494;2022-08-19T04:44:19;20.20;99.90
13808;DHT22;40769;51.512;5.494;2022-08-19T04:46:46;20.20;99.90
13808;DHT22;40769;51.512;5.494;2022-08-19T04:49:13;20.20;99.90
13808;DHT22;40769;51.512;5.494;2022-08-19T04:51:41;20.20;99.90
13808;DHT22;40769;51.512;5.494;2022-08-19T04:54:08;20.10;99.90
13808;DHT22;40769;51.512;5.494;2022-08-19T04:56:34;20.10;99.90
13808;DHT22;40769;51.512;5.494;2022-08-19T04:59:00;20.30;99.90
13808;DHT22;40769;51.512;5.494;2022-08-19T05:01:31;20.10;99.90
13808;DHT22;40769;51.512;5.494;2022-08-19T05:03:59;20.10;99.90
13808;DHT22;40769;51.512;5.494;2022-08-19T05:06:26;20.10;99.90
13808;DHT22;40769;51.512;5.494;2022-08-19T05:08:52;20.00;99.90
13808;DHT22;40769;51.512;5.494;2022-08-19T05:11:21;20.00;99.90
13808;DHT22;40769;51.512;5.494;2022-08-19T05:13:47;20.00;99.90
13808;DHT22;40769;51.512;5.494;2022-08-19T05:16:16;20.00;99.90
13808;DHT22;40769;51.512;5.494;2022-08-19T05:18:42;19.80;99.90
13808;DHT22;40769;51.512;5.494;2022-08-19T05:21:27;20.00;99.90
13808;DHT22;40769;51.512;5.494;2022-08-19T05:24:12;20.00;99.90
13808;DHT22;40769;51.512;5.494;2022-08-19T05:26:42;20.00;99.90
13808;DHT22;40769;51.512;5.494;2022-08-19T05:29:09;20.00;99.90
13808;DHT22;40769;51.512;5.494;2022-08-19T05:31:36;20.10;99.90
13808;DHT22;40769;51.512;5.494;2022-08-19T05:34:04;20.10;99.90
13808;DHT22;40769;51.512;5.494;2022-08-19T05:36:35;20.20;99.90
13808;DHT22;40769;51.512;5.494;2022-08-19T05:39:02;20.10;99.90
13808;DHT22;40769;51.512;5.494;2022-08-19T05:41:27;20.20;99.90
13808;DHT22;40769;51.512;5.494;2022-08-19T05:43:57;20.20;99.90
13808;DHT22;40769;51.512;5.494;2022-08-19T05:46:23;20.30;99.90
13808;DHT22;40769;51.512;5.494;2022-08-19T05:48:49;20.30;99.90
13808;DHT22;40769;51.512;5.494;2022-08-19T05:51:15;20.30;99.90
13808;DHT22;40769;51.512;5.494;2022-08-19T05:53:42;20.40;99.90
13808;DHT22;40769;51.512;5.494;2022-08-19T05:56:13;20.40;99.90
13808;DHT22;40769;51.512;5.494;2022-08-19T05:58:41;20.50;99.90
13808;DHT22;40769;51.512;5.494;2022-08-19T06:01:13;20.60;99.90
13808;DHT22;40769;51.512;5.494;2022-08-19T06:03:40;20.50;99.90
13808;DHT22;40769;51.512;5.494;2022-08-19T06:06:07;20.60;99.90
13808;DHT22;40769;51.512;5.494;2022-08-19T06:08:33;20.70;99.90
13808;DHT22;40769;51.512;5.494;2022-08-19T06:11:12;20.70;99.90
13808;DHT22;40769;51.512;5.494;2022-08-19T06:13:38;20.70;99.90
13808;DHT22;40769;51.512;5.494;2022-08-19T06:16:04;20.70;99.90
13808;DHT22;40769;51.512;5.494;2022-08-19T06:18:30;20.80;99.90
13808;DHT22;40769;51.512;5.494;2022-08-19T06:20:55;20.90;99.90
13808;DHT22;40769;51.512;5.494;2022-08-19T06:23:21;21.00;99.90
13808;DHT22;40769;51.512;5.494;2022-08-19T06:25:47;21.20;99.90
13808;DHT22;40769;51.512;5.494;2022-08-19T06:28:12;21.10;99.90
13808;DHT22;40769;51.512;5.494;2022-08-19T06:30:38;21.40;99.90
13808;DHT22;40769;51.512;5.494;2022-08-19T06:33:03;21.50;99.90
13808;DHT22;40769;51.512;5.494;2022-08-19T06:35:29;21.60;99.90
13808;DHT22;40769;51.512;5.494;2022-08-19T06:37:55;21.70;99.90
13808;DHT22;40769;51.512;5.494;2022-08-19T06:40:21;21.90;99.90
13808;DHT22;40769;51.512;5.494;2022-08-19T06:42:47;22.00;99.90
13808;DHT22;40769;51.512;5.494;2022-08-19T06:45:13;22.10;99.90
13808;DHT22;40769;51.512;5.494;2022-08-19T06:47:40;22.30;99.90
13808;DHT22;40769;51.512;5.494;2022-08-19T06:50:13;22.40;99.90
13808;DHT22;40769;51.512;5.494;2022-08-19T06:52:39;22.50;99.90
13808;DHT22;40769;51.512;5.494;2022-08-19T06:55:05;22.70;99.90
13808;DHT22;40769;51.512;5.494;2022-08-19T06:57:31;22.80;99.90
13808;DHT22;40769;51.512;5.494;2022-08-19T06:59:58;23.00;99.90
13808;DHT22;40769;51.512;5.494;2022-08-19T07:02:25;23.10;99.90
13808;DHT22;40769;51.512;5.494;2022-08-19T07:04:53;23.40;99.90
13808;DHT22;40769;51.512;5.494;2022-08-19T07:07:23;23.60;99.90
13808;DHT22;40769;51.512;5.494;2022-08-19T07:09:50;23.70;99.90
13808;DHT22;40769;51.512;5.494;2022-08-19T07:12:16;23.80;99.90
13808;DHT22;40769;51.512;5.494;2022-08-19T07:14:41;23.90;99.90
13808;DHT22;40769;51.512;5.494;2022-08-19T07:17:10;24.00;99.90
13808;DHT22;40769;51.512;5.494;2022-08-19T07:19:37;24.00;99.90
13808;DHT22;40769;51.512;5.494;2022-08-19T07:22:04;24.20;99.90
13808;DHT22;40769;51.512;5.494;2022-08-19T07:24:31;24.20;99.90
13808;DHT22;40769;51.512;5.494;2022-08-19T07:27:00;24.30;99.90
13808;DHT22;40769;51.512;5.494;2022-08-19T07:29:29;24.40;99.90
13808;DHT22;40769;51.512;5.494;2022-08-19T07:31:56;24.50;99.90
13808;DHT22;40769;51.512;5.494;2022-08-19T07:34:23;24.60;99.90
13808;DHT22;40769;51.512;5.494;2022-08-19T07:36:49;24.80;99.90
13808;DHT22;40769;51.512;5.494;2022-08-19T07:39:18;25.00;99.90
13808;DHT22;40769;51.512;5.494;2022-08-19T07:41:45;25.20;99.90
13808;DHT22;40769;51.512;5.494;2022-08-19T07:44:12;25.30;99.90
13808;DHT22;40769;51.512;5.494;2022-08-19T07:46:41;25.50;99.90
13808;DHT22;40769;51.512;5.494;2022-08-19T07:49:07;25.70;99.90
13808;DHT22;40769;51.512;5.494;2022-08-19T07:51:34;25.90;99.90
13808;DHT22;40769;51.512;5.494;2022-08-19T07:54:00;26.10;99.90
13808;DHT22;40769;51.512;5.494;2022-08-19T07:56:26;26.30;99.90
13808;DHT22;40769;51.512;5.494;2022-08-19T07:58:52;26.40;99.90
13808;DHT22;40769;51.512;5.494;2022-08-19T08:01:26;26.50;99.90
13808;DHT22;40769;51.512;5.494;2022-08-19T08:03:54;26.70;99.90
13808;DHT22;40769;51.512;5.494;2022-08-19T08:06:38;26.80;99.90
13808;DHT22;40769;51.512;5.494;2022-08-19T08:09:36;26.90;99.90
13808;DHT22;40769;51.512;5.494;2022-08-19T08:12:12;27.00;99.90
13808;DHT22;40769;51.512;5.494;2022-08-19T08:14:43;27.10;99.90
13808;DHT22;40769;51.512;5.494;2022-08-19T08:17:10;27.20;99.90
13808;DHT22;40769;51.512;5.494;2022-08-19T08:19:36;27.30;99.90
13808;DHT22;40769;51.512;5.494;2022-08-19T08:22:02;27.30;99.90
13808;DHT22;40769;51.512;5.494;2022-08-19T08:24:30;27.40;99.90
13808;DHT22;40769;51.512;5.494;2022-08-19T08:26:58;27.30;99.90
13808;DHT22;40769;51.512;5.494;2022-08-19T08:29:25;27.30;99.90
13808;DHT22;40769;51.512;5.494;2022-08-19T08:31:52;27.30;99.90
13808;DHT22;40769;51.512;5.494;2022-08-19T08:34:19;27.20;99.90
13808;DHT22;40769;51.512;5.494;2022-08-19T08:36:45;27.20;99.90
13808;DHT22;40769;51.512;5.494;2022-08-19T08:39:14;27.10;99.90
13808;DHT22;40769;51.512;5.494;2022-08-19T08:42:04;27.00;99.90
13808;DHT22;40769;51.512;5.494;2022-08-19T08:44:57;26.90;99.90
13808;DHT22;40769;51.512;5.494;2022-08-19T08:47:25;26.80;99.90
13808;DHT22;40769;51.512;5.494;2022-08-19T08:49:56;26.80;99.90
13808;DHT22;40769;51.512;5.494;2022-08-19T08:52:25;26.70;99.90
13808;DHT22;40769;51.512;5.494;2022-08-19T08:54:55;26.70;99.90
13808;DHT22;40769;51.512;5.494;2022-08-19T08:57:29;26.60;99.90
13808;DHT22;40769;51.512;5.494;2022-08-19T08:59:57;26.60;99.90
13808;DHT22;40769;51.512;5.494;2022-08-19T09:02:24;26.70;99.90
13808;DHT22;40769;51.512;5.494;2022-08-19T09:04:50;26.70;99.90
13808;DHT22;40769;51.512;5.494;2022-08-19T09:10:02;26.80;99.90
13808;DHT22;40769;51.512;5.494;2022-08-19T09:13:11;26.80;99.90
13808;DHT22;40769;51.512;5.494;2022-08-19T09:15:49;26.80;99.90
13808;DHT22;40769;51.512;5.494;2022-08-19T09:18:16;26.70;99.90
13808;DHT22;40769;51.512;5.494;2022-08-19T09:20:42;26.70;99.90
13808;DHT22;40769;51.512;5.494;2022-08-19T09:23:08;26.70;99.90
13808;DHT22;40769;51.512;5.494;2022-08-19T09:25:34;26.60;99.90
13808;DHT22;40769;51.512;5.494;2022-08-19T09:28:00;26.60;99.90
13808;DHT22;40769;51.512;5.494;2022-08-19T09:30:32;26.60;99.90
13808;DHT22;40769;51.512;5.494;2022-08-19T09:32:59;26.70;99.90
13808;DHT22;40769;51.512;5.494;2022-08-19T09:35:27;26.70;99.90
13808;DHT22;40769;51.512;5.494;2022-08-19T09:37:54;26.70;99.90
13808;DHT22;40769;51.512;5.494;2022-08-19T09:40:20;26.70;99.90
13808;DHT22;40769;51.512;5.494;2022-08-19T09:42:46;26.70;99.90
13808;DHT22;40769;51.512;5.494;2022-08-19T09:45:14;26.70;99.90
13808;DHT22;40769;51.512;5.494;2022-08-19T09:47:40;26.60;99.90
13808;DHT22;40769;51.512;5.494;2022-08-19T09:50:07;26.60;99.90
13808;DHT22;40769;51.512;5.494;2022-08-19T09:52:33;26.50;99.90
13808;DHT22;40769;51.512;5.494;2022-08-19T09:55:03;26.40;99.90
13808;DHT22;40769;51.512;5.494;2022-08-19T09:57:29;26.30;99.90
13808;DHT22;40769;51.512;5.494;2022-08-19T09:59:54;26.20;99.90
13808;DHT22;40769;51.512;5.494;2022-08-19T10:02:20;26.10;99.90
13808;DHT22;40769;51.512;5.494;2022-08-19T10:04:45;26.00;99.90
13808;DHT22;40769;51.512;5.494;2022-08-19T10:07:30;25.90;99.90
13808;DHT22;40769;51.512;5.494;2022-08-19T10:09:55;25.80;99.90
13808;DHT22;40769;51.512;5.494;2022-08-19T10:12:22;25.80;99.90
13808;DHT22;40769;51.512;5.494;2022-08-19T10:14:48;25.80;99.90
13808;DHT22;40769;51.512;5.494;2022-08-19T10:17:13;25.80;99.90
13808;DHT22;40769;51.512;5.494;2022-08-19T10:19:40;25.80;99.90
13808;DHT22;40769;51.512;5.494;2022-08-19T10:22:06;25.90;99.90
13808;DHT22;40769;51.512;5.494;2022-08-19T10:24:39;26.00;99.90
13808;DHT22;40769;51.512;5.494;2022-08-19T10:27:05;26.00;99.90
13808;DHT22;40769;51.512;5.494;2022-08-19T10:29:31;26.10;99.90
13808;DHT22;40769;51.512;5.494;2022-08-19T10:32:01;26.20;99.90
13808;DHT22;40769;51.512;5.494;2022-08-19T10:34:28;26.30;99.90
13808;DHT22;40769;51.512;5.494;2022-08-19T10:36:54;26.40;99.90
13808;DHT22;40769;51.512;5.494;2022-08-19T10:39:20;26.50;99.90
13808;DHT22;40769;51.512;5.494;2022-08-19T10:41:46;26.60;99.90
13808;DHT22;40769;51.512;5.494;2022-08-19T10:44:13;26.70;99.90
13808;DHT22;40769;51.512;5.494;2022-08-19T10:46:40;26.80;99.90
13808;DHT22;40769;51.512;5.494;2022-08-19T10:49:13;26.80;99.90
13808;DHT22;40769;51.512;5.494;2022-08-19T10:51:39;26.90;99.90
13808;DHT22;40769;51.512;5.494;2022-08-19T10:54:24;27.00;99.90
13808;DHT22;40769;51.512;5.494;2022-08-19T10:57:10;27.10;99.90
13808;DHT22;40769;51.512;5.494;2022-08-19T10:59:36;27.20;99.90
13808;DHT22;40769;51.512;5.494;2022-08-19T11:02:05;27.30;99.90
13808;DHT22;40769;51.512;5.494;2022-08-19T11:04:31;27.50;99.90
13808;DHT22;40769;51.512;5.494;2022-08-19T11:06:58;27.60;99.90
13808;DHT22;40769;51.512;5.494;2022-08-19T11:09:25;27.80;99.90
13808;DHT22;40769;51.512;5.494;2022-08-19T11:11:53;27.90;99.90
13808;DHT22;40769;51.512;5.494;2022-08-19T11:14:20;28.10;99.90
13808;DHT22;40769;51.512;5.494;2022-08-19T11:16:48;28.20;99.90
13808;DHT22;40769;51.512;5.494;2022-08-19T11:19:14;28.20;99.90
13808;DHT22;40769;51.512;5.494;2022-08-19T11:21:44;28.30;99.90
13808;DHT22;40769;51.512;5.494;2022-08-19T11:24:12;28.40;99.90
13808;DHT22;40769;51.512;5.494;2022-08-19T11:26:40;28.40;99.90
13808;DHT22;40769;51.512;5.494;2022-08-19T11:29:08;28.50;99.90
13808;DHT22;40769;51.512;5.494;2022-08-19T11:31:37;28.50;99.90
13808;DHT22;40769;51.512;5.494;2022-08-19T11:34:05;28.60;99.90
13808;DHT22;40769;51.512;5.494;2022-08-19T11:36:33;28.60;99.90
13808;DHT22;40769;51.512;5.494;2022-08-19T11:38:59;28.60;99.90
13808;DHT22;40769;51.512;5.494;2022-08-19T11:41:26;28.60;99.90
13808;DHT22;40769;51.512;5.494;2022-08-19T11:43:53;28.60;99.90
13808;DHT22;40769;51.512;5.494;2022-08-19T11:46:21;28.60;99.90
13808;DHT22;40769;51.512;5.494;2022-08-19T11:48:48;28.70;99.90
13808;DHT22;40769;51.512;5.494;2022-08-19T11:51:18;28.80;99.90
13808;DHT22;40769;51.512;5.494;2022-08-19T11:53:44;29.00;99.90
13808;DHT22;40769;51.512;5.494;2022-08-19T11:56:10;29.20;99.90
13808;DHT22;40769;51.512;5.494;2022-08-19T11:58:37;29.40;99.90
13808;DHT22;40769;51.512;5.494;2022-08-19T12:01:11;29.60;99.90
13808;DHT22;40769;51.512;5.494;2022-08-19T12:03:37;29.90;99.90
13808;DHT22;40769;51.512;5.494;2022-08-19T12:06:07;30.10;99.90
13808;DHT22;40769;51.512;5.494;2022-08-19T12:08:34;30.30;99.90
13808;DHT22;40769;51.512;5.494;2022-08-19T12:10:59;30.50;99.90
13808;DHT22;40769;51.512;5.494;2022-08-19T12:13:28;30.50;99.90
13808;DHT22;40769;51.512;5.494;2022-08-19T12:15:53;30.60;99.90
13808;DHT22;40769;51.512;5.494;2022-08-19T12:18:19;30.60;99.90
13808;DHT22;40769;51.512;5.494;2022-08-19T12:20:45;30.50;99.90
13808;DHT22;40769;51.512;5.494;2022-08-19T12:23:12;30.50;99.90
13808;DHT22;40769;51.512;5.494;2022-08-19T12:25:44;30.50;99.90
13808;DHT22;40769;51.512;5.494;2022-08-19T12:28:15;30.40;99.90
13808;DHT22;40769;51.512;5.494;2022-08-19T12:30:41;30.40;99.90
13808;DHT22;40769;51.512;5.494;2022-08-19T12:33:07;30.30;99.90
13808;DHT22;40769;51.512;5.494;2022-08-19T12:35:33;30.20;99.90
13808;DHT22;40769;51.512;5.494;2022-08-19T12:37:59;30.10;99.90
13808;DHT22;40769;51.512;5.494;2022-08-19T12:40:26;29.90;99.90
13808;DHT22;40769;51.512;5.494;2022-08-19T12:42:53;29.80;99.90
13808;DHT22;40769;51.512;5.494;2022-08-19T12:45:19;29.80;99.90
13808;DHT22;40769;51.512;5.494;2022-08-19T12:47:44;29.60;99.90
13808;DHT22;40769;51.512;5.494;2022-08-19T12:50:11;29.60;99.90
13808;DHT22;40769;51.512;5.494;2022-08-19T12:52:37;29.50;99.90
13808;DHT22;40769;51.512;5.494;2022-08-19T12:55:05;29.50;99.90
13808;DHT22;40769;51.512;5.494;2022-08-19T12:57:31;29.60;99.90
13808;DHT22;40769;51.512;5.494;2022-08-19T13:00:21;29.80;99.90
13808;DHT22;40769;51.512;5.494;2022-08-19T13:02:49;30.00;99.90
13808;DHT22;40769;51.512;5.494;2022-08-19T13:05:19;30.20;99.90
13808;DHT22;40769;51.512;5.494;2022-08-19T13:07:46;30.40;99.90
13808;DHT22;40769;51.512;5.494;2022-08-19T13:10:19;30.50;99.90
13808;DHT22;40769;51.512;5.494;2022-08-19T13:12:47;30.60;99.90
13808;DHT22;40769;51.512;5.494;2022-08-19T13:15:15;30.70;99.90
13808;DHT22;40769;51.512;5.494;2022-08-19T13:17:49;30.70;99.90
13808;DHT22;40769;51.512;5.494;2022-08-19T13:20:17;30.80;99.90
13808;DHT22;40769;51.512;5.494;2022-08-19T13:22:45;30.80;99.90
13808;DHT22;40769;51.512;5.494;2022-08-19T13:25:11;30.70;99.90
13808;DHT22;40769;51.512;5.494;2022-08-19T13:27:38;30.60;99.90
13808;DHT22;40769;51.512;5.494;2022-08-19T13:30:05;30.50;99.90
13808;DHT22;40769;51.512;5.494;2022-08-19T13:32:49;30.40;99.90
13808;DHT22;40769;51.512;5.494;2022-08-19T13:35:34;30.20;99.90
13808;DHT22;40769;51.512;5.494;2022-08-19T13:37:59;30.00;99.90
13808;DHT22;40769;51.512;5.494;2022-08-19T13:40:26;29.80;99.90
13808;DHT22;40769;51.512;5.494;2022-08-19T13:42:53;29.70;99.90
13808;DHT22;40769;51.512;5.494;2022-08-19T13:45:24;29.50;99.90
13808;DHT22;40769;51.512;5.494;2022-08-19T13:47:52;29.40;99.90
13808;DHT22;40769;51.512;5.494;2022-08-19T13:50:22;29.30;99.90
13808;DHT22;40769;51.512;5.494;2022-08-19T13:52:48;29.20;99.90
13808;DHT22;40769;51.512;5.494;2022-08-19T13:55:15;29.10;99.90
13808;DHT22;40769;51.512;5.494;2022-08-19T13:57:41;29.10;99.90
13808;DHT22;40769;51.512;5.494;2022-08-19T14:00:13;29.00;99.90
13808;DHT22;40769;51.512;5.494;2022-08-19T14:02:40;29.00;99.90
13808;DHT22;40769;51.512;5.494;2022-08-19T14:05:08;29.00;99.90
13808;DHT22;40769;51.512;5.494;2022-08-19T14:07:35;28.90;99.90
13808;DHT22;40769;51.512;5.494;2022-08-19T14:10:02;28.80;99.90
13808;DHT22;40769;51.512;5.494;2022-08-19T14:12:28;28.80;99.90
13808;DHT22;40769;51.512;5.494;2022-08-19T14:14:54;28.70;99.90
13808;DHT22;40769;51.512;5.494;2022-08-19T14:17:20;28.70;99.90
13808;DHT22;40769;51.512;5.494;2022-08-19T14:19:46;28.70;99.90
13808;DHT22;40769;51.512;5.494;2022-08-19T14:22:13;28.70;99.90
13808;DHT22;40769;51.512;5.494;2022-08-19T14:24:38;28.70;99.90
13808;DHT22;40769;51.512;5.494;2022-08-19T14:27:06;28.70;99.90
13808;DHT22;40769;51.512;5.494;2022-08-19T14:29:33;28.70;99.90
13808;DHT22;40769;51.512;5.494;2022-08-19T14:31:59;28.80;99.90
13808;DHT22;40769;51.512;5.494;2022-08-19T14:34:25;28.90;99.90
13808;DHT22;40769;51.512;5.494;2022-08-19T14:36:52;29.10;99.90
13808;DHT22;40769;51.512;5.494;2022-08-19T14:39:18;29.30;99.90
13808;DHT22;40769;51.512;5.494;2022-08-19T14:41:43;29.60;99.90
13808;DHT22;40769;51.512;5.494;2022-08-19T14:44:10;30.00;99.90
13808;DHT22;40769;51.512;5.494;2022-08-19T14:46:38;30.20;99.90
13808;DHT22;40769;51.512;5.494;2022-08-19T14:49:04;30.70;99.90
13808;DHT22;40769;51.512;5.494;2022-08-19T14:51:29;31.00;99.90
13808;DHT22;40769;51.512;5.494;2022-08-19T14:53:56;31.30;99.90
13808;DHT22;40769;51.512;5.494;2022-08-19T14:56:24;31.50;99.90
13808;DHT22;40769;51.512;5.494;2022-08-19T14:58:50;31.70;99.90
13808;DHT22;40769;51.512;5.494;2022-08-19T15:01:17;31.80;99.90
13808;DHT22;40769;51.512;5.494;2022-08-19T15:03:46;32.00;99.90
13808;DHT22;40769;51.512;5.494;2022-08-19T15:06:11;31.90;99.90
13808;DHT22;40769;51.512;5.494;2022-08-19T15:08:39;31.90;99.90
13808;DHT22;40769;51.512;5.494;2022-08-19T15:11:16;31.90;99.90
13808;DHT22;40769;51.512;5.494;2022-08-19T15:13:42;31.90;99.90
13808;DHT22;40769;51.512;5.494;2022-08-19T15:16:10;31.80;99.90
13808;DHT22;40769;51.512;5.494;2022-08-19T15:18:36;31.80;99.90
13808;DHT22;40769;51.512;5.494;2022-08-19T15:21:03;31.70;99.90
13808;DHT22;40769;51.512;5.494;2022-08-19T15:23:29;31.60;99.90
13808;DHT22;40769;51.512;5.494;2022-08-19T15:25:55;31.50;99.90
13808;DHT22;40769;51.512;5.494;2022-08-19T15:28:22;31.40;99.90
13808;DHT22;40769;51.512;5.494;2022-08-19T15:30:48;31.30;99.90
13808;DHT22;40769;51.512;5.494;2022-08-19T15:33:15;31.20;99.90
13808;DHT22;40769;51.512;5.494;2022-08-19T15:35:43;31.10;99.90
13808;DHT22;40769;51.512;5.494;2022-08-19T15:38:08;31.00;99.90